Home   Weather   Tajikistan   Dushanbe   Past weeks
Flag for Tajikistan

Past Weather in Dushanbe, Tajikistan — Yesterday and Last 2 Weeks

Currently: 50 °F. Clear. (Weather station: Dushanbe Airport, Tajikistan). See more current weather

Past Weather in Dushanbe — Graph

°F

Dushanbe Temperature Yesterday

Maximum temperature yesterday: 70 °F (at 1:00 pm)
Minimum temperature yesterday: 41 °F (at 2:00 am)
Average temperature yesterday: 55 °F

High & Low Weather Summary for the Past Weeks

 TemperatureHumidityPressure
High72 °F (Nov 24, 1:00 pm)100% (Nov 19, 4:30 am)30.42 "Hg (Nov 19, 4:30 am)
Low37 °F (Nov 15, 6:30 am)20% (Nov 24, 3:00 pm)30.01 "Hg (Nov 18, 4:30 pm)
Average51 °F61%30.20 "Hg
* Reported Nov 13 12:00 am — Nov 28 12:00 am, Dushanbe. Weather by CustomWeather, © 2022

Note: Actual official high and low records may vary slightly from our data, if they occured in-between our weather recording intervals... More about our weather records

Dushanbe Weather History for the Previous 24 Hours

Scroll right to see more
 ConditionsComfort  
Time TempWeatherWind HumidityBarometerVisibility
12:00 am
Mon, Nov 28
50 °FClear.6 mph54%30.07 "HgN/A
11:00 pm
Sun, Nov 27
50 °FClear.6 mph54%30.09 "HgN/A
10:30 pm52 °FClear.6 mph50%30.09 "HgN/A
10:00 pm50 °FClear.3 mph54%30.09 "Hg6 mi
9:30 pm54 °FClear.6 mph47%30.09 "Hg6 mi
9:00 pm52 °FClear.6 mph50%30.09 "Hg5 mi
8:30 pm52 °FClear.6 mph54%30.09 "Hg4 mi
8:00 pm57 °FClear.6 mph41%30.09 "Hg5 mi
7:30 pm57 °FClear.6 mph44%30.09 "Hg4 mi
7:00 pm57 °FClear.8 mph41%30.09 "Hg5 mi
6:00 pm61 °FPassing clouds.6 mph36%30.09 "Hg6 mi
5:30 pm61 °FPassing clouds.8 mph36%30.07 "Hg5 mi
4:30 pm64 °FScattered clouds.10 mph32%30.09 "HgN/A
4:00 pm66 °FScattered clouds.10 mph30%30.07 "HgN/A
3:30 pm68 °FPassing clouds.10 mph28%30.07 "HgN/A
3:00 pm70 °FPassing clouds.10 mph27%30.09 "HgN/A
2:30 pm70 °FPassing clouds.13 mph27%30.09 "HgN/A
2:00 pm70 °FPartly sunny.8 mph27%30.09 "HgN/A
1:30 pm70 °FScattered clouds.8 mph25%30.09 "HgN/A
1:00 pm70 °FPassing clouds.8 mph23%30.09 "HgN/A
12:30 pm68 °FMild.8 mph24%30.12 "HgN/A
12:00 pm66 °FPassing clouds.3 mph40%30.15 "HgN/A
11:30 am64 °FPartly sunny.6 mph30%30.15 "HgN/A
11:00 am63 °FPartly sunny.6 mph32%30.15 "HgN/A
10:00 am57 °FPartly sunny.3 mph44%30.18 "HgN/A
9:30 am55 °FScattered clouds.1 mph44%30.18 "Hg4 mi
9:00 am54 °FPartly sunny.6 mph47%30.18 "Hg4 mi
8:30 am52 °FPartly sunny.3 mph50%30.18 "Hg4 mi
8:00 am45 °FPartly sunny.3 mph66%30.15 "Hg6 mi
7:30 am43 °FScattered clouds.3 mph71%30.15 "HgN/A
7:00 am43 °FPassing clouds.6 mph71%30.15 "HgN/A
6:30 am41 °FPassing clouds.1 mph76%30.15 "HgN/A
6:00 am41 °FPassing clouds.No wind70%30.15 "HgN/A
4:30 am45 °FClear.3 mph66%30.15 "HgN/A
4:00 am45 °FClear.3 mph66%30.15 "HgN/A
3:00 am43 °FClear.1 mph71%30.15 "HgN/A
2:30 am41 °FClear.1 mph70%30.15 "HgN/A
2:00 am41 °FClear.1 mph76%30.15 "HgN/A
1:30 am45 °FClear.3 mph71%30.15 "HgN/A
1:00 am45 °FClear.1 mph66%30.15 "HgN/A
Weather by CustomWeather, © 2022

See weather overview